createdAt,value
2023-11-30T00:01:10.811Z,99107.00
2023-11-30T00:03:38.686Z,99110.00
2023-11-30T00:06:06.744Z,99108.00
2023-11-30T00:08:34.356Z,99107.00
2023-11-30T00:11:01.935Z,99116.00
2023-11-30T00:13:29.701Z,99117.00
2023-11-30T00:15:57.435Z,99110.00
2023-11-30T00:18:25.887Z,99109.00
2023-11-30T00:20:53.800Z,99122.00
2023-11-30T00:23:21.537Z,99110.00
2023-11-30T00:25:49.325Z,99121.00
2023-11-30T00:28:16.949Z,99119.00
2023-11-30T00:30:44.861Z,99115.00
2023-11-30T00:33:12.473Z,99115.00
2023-11-30T00:35:40.302Z,99130.00
2023-11-30T00:38:08.181Z,99121.00
2023-11-30T00:40:35.797Z,99119.00
2023-11-30T00:43:03.585Z,99124.00
2023-11-30T00:45:31.260Z,99110.00
2023-11-30T00:47:59.020Z,99123.00
2023-11-30T00:50:26.765Z,99123.00
2023-11-30T00:52:54.449Z,99132.00
2023-11-30T00:55:22.134Z,99116.00
2023-11-30T00:57:54.455Z,99118.00
2023-11-30T01:00:23.738Z,99119.00
2023-11-30T01:02:51.655Z,99128.00
2023-11-30T01:05:19.359Z,99118.00
2023-11-30T01:07:47.028Z,99117.00
2023-11-30T01:10:14.700Z,99121.00
2023-11-30T01:12:42.462Z,99121.00
2023-11-30T01:15:11.498Z,99120.00
2023-11-30T01:17:39.624Z,99126.00
2023-11-30T01:20:08.829Z,99122.00
2023-11-30T01:22:36.677Z,99125.00
2023-11-30T01:25:04.530Z,99123.00
2023-11-30T01:27:32.200Z,99121.00
2023-11-30T01:30:00.565Z,99121.00
2023-11-30T01:32:28.673Z,99122.00
2023-11-30T01:34:56.520Z,99119.00
2023-11-30T01:37:24.210Z,99116.00
2023-11-30T01:39:52.133Z,99122.00
2023-11-30T01:42:20.050Z,99126.00
2023-11-30T01:44:48.300Z,99124.00
2023-11-30T01:47:17.035Z,99130.00
2023-11-30T01:49:44.894Z,99128.00
2023-11-30T01:52:12.838Z,99133.00
2023-11-30T01:54:40.693Z,99130.00
2023-11-30T01:57:08.512Z,99127.00
2023-11-30T01:59:36.613Z,99135.00
2023-11-30T02:02:04.933Z,99123.00
2023-11-30T02:04:32.816Z,99130.00
2023-11-30T02:07:00.717Z,99131.00
2023-11-30T02:09:28.684Z,99137.00
2023-11-30T02:11:56.687Z,99123.00
2023-11-30T02:14:24.808Z,99127.00
2023-11-30T02:16:52.511Z,99118.00
2023-11-30T02:19:20.343Z,99119.00
2023-11-30T02:21:52.026Z,99119.00
2023-11-30T02:24:20.315Z,99118.00
2023-11-30T02:26:48.182Z,99113.00
2023-11-30T02:29:16.963Z,99109.00
2023-11-30T02:31:45.250Z,99116.00
2023-11-30T02:34:12.994Z,99104.00
2023-11-30T02:36:41.119Z,99104.00
2023-11-30T02:39:08.866Z,99099.00
2023-11-30T02:41:36.696Z,99101.00
2023-11-30T02:44:04.750Z,99099.00
2023-11-30T02:46:32.561Z,99089.00
2023-11-30T02:49:00.433Z,99092.00
2023-11-30T02:51:28.391Z,99103.00
2023-11-30T02:53:56.330Z,99092.00
2023-11-30T02:56:24.149Z,99108.00
2023-11-30T02:58:51.893Z,99095.00
2023-11-30T03:01:20.045Z,99099.00
2023-11-30T03:03:47.854Z,99089.00
2023-11-30T03:06:16.622Z,99094.00
2023-11-30T03:08:47.075Z,99084.00
2023-11-30T03:11:15.106Z,99086.00
2023-11-30T03:13:42.898Z,99080.00
2023-11-30T03:16:10.927Z,99076.00
2023-11-30T03:18:42.200Z,99081.00
2023-11-30T03:21:20.688Z,99076.00
2023-11-30T03:23:50.641Z,99070.00
2023-11-30T03:26:20.306Z,99064.00
2023-11-30T03:28:48.577Z,99073.00
2023-11-30T03:31:16.799Z,99070.00
2023-11-30T03:33:44.671Z,99075.00
2023-11-30T03:36:12.510Z,99075.00
2023-11-30T03:38:44.736Z,99070.00
2023-11-30T03:41:12.563Z,99066.00
2023-11-30T03:43:40.452Z,99066.00
2023-11-30T03:46:08.377Z,99069.00
2023-11-30T03:48:36.152Z,99072.00
2023-11-30T03:51:06.939Z,99068.00
2023-11-30T03:53:34.693Z,99063.00
2023-11-30T03:56:02.718Z,99075.00
2023-11-30T03:58:30.472Z,99067.00
2023-11-30T04:00:58.146Z,99069.00
2023-11-30T04:03:25.907Z,99071.00
2023-11-30T04:05:53.760Z,99072.00
2023-11-30T04:08:22.015Z,99073.00
2023-11-30T04:10:49.855Z,99060.00
2023-11-30T04:13:17.592Z,99059.00
2023-11-30T04:15:45.541Z,99067.00
2023-11-30T04:18:13.497Z,99071.00
2023-11-30T04:20:41.354Z,99065.00
2023-11-30T04:23:15.375Z,99074.00
2023-11-30T04:25:43.103Z,99068.00
2023-11-30T04:28:11.756Z,99068.00
2023-11-30T04:30:39.510Z,99070.00
2023-11-30T04:33:07.973Z,99068.00
2023-11-30T04:35:35.856Z,99077.00
2023-11-30T04:38:03.846Z,99066.00
2023-11-30T04:40:31.913Z,99060.00
2023-11-30T04:42:59.644Z,99065.00
2023-11-30T04:45:28.037Z,99063.00
2023-11-30T04:47:56.129Z,99059.00
2023-11-30T04:50:24.091Z,99058.00
2023-11-30T04:52:52.095Z,99059.00
2023-11-30T04:55:19.695Z,99068.00
2023-11-30T04:57:48.788Z,99072.00
2023-11-30T05:00:17.392Z,99068.00
2023-11-30T05:02:56.873Z,99072.00
2023-11-30T05:05:25.103Z,99080.00
2023-11-30T05:07:52.942Z,99079.00
2023-11-30T05:10:20.665Z,99079.00
2023-11-30T05:12:48.427Z,99083.00
2023-11-30T05:15:16.384Z,99083.00
2023-11-30T05:17:44.180Z,99084.00
2023-11-30T05:20:12.183Z,99081.00
2023-11-30T05:22:39.786Z,99074.00
2023-11-30T05:25:08.601Z,99075.00
2023-11-30T05:27:36.550Z,99077.00
2023-11-30T05:30:04.912Z,99068.00
2023-11-30T05:32:32.873Z,99068.00
2023-11-30T05:35:00.593Z,99071.00
2023-11-30T05:37:29.573Z,99069.00
2023-11-30T05:39:58.386Z,99068.00
2023-11-30T05:42:26.185Z,99076.00
2023-11-30T05:44:53.754Z,99071.00
2023-11-30T05:47:22.836Z,99076.00
2023-11-30T05:49:51.599Z,99079.00
2023-11-30T05:52:19.378Z,99076.00
2023-11-30T05:54:47.154Z,99081.00
2023-11-30T05:57:14.924Z,99079.00
2023-11-30T05:59:45.151Z,99078.00
2023-11-30T06:02:13.014Z,99085.00
2023-11-30T06:04:53.714Z,99092.00
2023-11-30T06:07:22.298Z,99099.00
2023-11-30T06:09:50.260Z,99085.00
2023-11-30T06:12:18.098Z,99100.00
2023-11-30T06:14:46.036Z,99102.00
2023-11-30T06:17:14.388Z,99109.00
2023-11-30T06:19:42.266Z,99116.00
2023-11-30T06:22:10.017Z,99112.00
2023-11-30T06:24:37.943Z,99122.00
2023-11-30T06:27:06.104Z,99117.00
2023-11-30T06:29:33.997Z,99124.00
2023-11-30T06:32:02.419Z,99118.00
2023-11-30T06:34:30.060Z,99117.00
2023-11-30T06:36:58.069Z,99116.00
2023-11-30T06:39:26.169Z,99119.00
2023-11-30T06:41:54.035Z,99112.00
2023-11-30T06:44:21.802Z,99111.00
2023-11-30T06:46:49.565Z,99120.00
2023-11-30T06:49:17.602Z,99120.00
2023-11-30T06:51:45.391Z,99115.00
2023-11-30T06:54:13.291Z,99118.00
2023-11-30T06:56:41.031Z,99133.00
2023-11-30T06:59:08.776Z,99137.00
2023-11-30T07:01:37.793Z,99128.00
2023-11-30T07:04:05.825Z,99138.00
2023-11-30T07:06:33.708Z,99122.00
2023-11-30T07:09:01.562Z,99128.00
2023-11-30T07:11:29.286Z,99122.00
2023-11-30T07:13:57.120Z,99121.00
2023-11-30T07:16:24.839Z,99131.00
2023-11-30T07:18:53.143Z,99127.00
2023-11-30T07:21:21.099Z,99123.00
2023-11-30T07:23:48.896Z,99131.00
2023-11-30T07:26:18.088Z,99122.00
2023-11-30T07:28:45.898Z,99134.00
2023-11-30T07:31:21.203Z,99140.00
2023-11-30T07:33:49.652Z,99147.00
2023-11-30T07:36:17.433Z,99141.00
2023-11-30T07:38:45.286Z,99129.00
2023-11-30T07:41:13.510Z,99139.00
2023-11-30T07:43:41.162Z,99137.00
2023-11-30T07:46:09.282Z,99132.00
2023-11-30T07:48:36.969Z,99141.00
2023-11-30T07:51:04.976Z,99139.00
2023-11-30T07:53:32.793Z,99137.00
2023-11-30T07:56:01.907Z,99140.00
2023-11-30T07:58:29.675Z,99133.00
2023-11-30T08:00:58.353Z,99132.00
2023-11-30T08:03:26.333Z,99132.00
2023-11-30T08:05:54.137Z,99132.00
2023-11-30T08:08:22.006Z,99130.00
2023-11-30T08:10:49.870Z,99125.00
2023-11-30T08:13:17.990Z,99126.00
2023-11-30T08:15:45.786Z,99129.00
2023-11-30T08:18:15.455Z,99133.00
2023-11-30T08:20:44.544Z,99132.00
2023-11-30T08:23:12.214Z,99132.00
2023-11-30T08:25:40.008Z,99137.00
2023-11-30T08:28:07.800Z,99132.00
2023-11-30T08:30:35.742Z,99139.00
2023-11-30T08:33:07.075Z,99141.00
2023-11-30T08:35:34.929Z,99142.00
2023-11-30T08:38:03.193Z,99130.00
2023-11-30T08:40:30.925Z,99136.00
2023-11-30T08:42:58.949Z,99135.00
2023-11-30T08:45:28.840Z,99134.00
2023-11-30T08:47:56.714Z,99132.00
2023-11-30T08:50:24.283Z,99123.00
2023-11-30T08:52:52.064Z,99124.00
2023-11-30T08:55:19.849Z,99124.00
2023-11-30T08:57:47.820Z,99129.00
2023-11-30T09:00:20.109Z,99129.00
2023-11-30T09:02:49.359Z,99124.00
2023-11-30T09:05:17.100Z,99119.00
2023-11-30T09:07:47.925Z,99120.00
2023-11-30T09:10:15.531Z,99124.00
2023-11-30T09:12:43.144Z,99119.00
2023-11-30T09:15:11.743Z,99122.00
2023-11-30T09:17:39.693Z,99124.00
2023-11-30T09:20:09.846Z,99116.00
2023-11-30T09:22:38.062Z,99123.00
2023-11-30T09:25:06.747Z,99117.00
2023-11-30T09:27:34.454Z,99124.00
2023-11-30T09:30:02.642Z,99127.00
2023-11-30T09:32:30.401Z,99117.00
2023-11-30T09:34:58.087Z,99130.00
2023-11-30T09:37:25.774Z,99118.00
2023-11-30T09:39:53.741Z,99125.00
2023-11-30T09:42:21.275Z,99129.00
2023-11-30T09:44:49.123Z,99130.00
2023-11-30T09:47:18.061Z,99126.00
2023-11-30T09:49:45.702Z,99117.00
2023-11-30T09:52:13.466Z,99114.00
2023-11-30T09:54:41.387Z,99115.00
2023-11-30T09:57:09.340Z,99117.00
2023-11-30T09:59:37.079Z,99111.00
2023-11-30T10:02:07.533Z,99110.00
2023-11-30T10:04:35.777Z,99105.00
2023-11-30T10:07:03.837Z,99100.00
2023-11-30T10:09:31.727Z,99094.00
2023-11-30T10:11:59.401Z,99095.00
2023-11-30T10:14:27.526Z,99088.00
2023-11-30T10:16:55.393Z,99086.00
2023-11-30T10:19:23.310Z,99091.00
2023-11-30T10:21:51.879Z,99095.00
2023-11-30T10:24:20.075Z,99098.00
2023-11-30T10:26:55.129Z,99093.00
2023-11-30T10:29:22.867Z,99093.00
2023-11-30T10:31:53.444Z,99093.00
2023-11-30T10:34:30.328Z,99085.00
2023-11-30T10:37:04.037Z,99088.00
2023-11-30T10:39:38.355Z,99083.00
2023-11-30T10:42:12.916Z,99082.00
2023-11-30T10:44:42.120Z,99086.00
2023-11-30T10:47:13.435Z,99079.00
2023-11-30T10:49:41.202Z,99069.00
2023-11-30T10:52:10.088Z,99069.00
2023-11-30T10:54:41.475Z,99070.00
2023-11-30T10:57:09.324Z,99061.00
2023-11-30T10:59:37.042Z,99071.00
2023-11-30T11:02:07.206Z,99062.00
2023-11-30T11:04:35.081Z,99056.00
2023-11-30T11:07:10.265Z,99057.00
2023-11-30T11:09:57.727Z,99047.00
2023-11-30T11:12:30.732Z,99050.00
2023-11-30T11:15:15.803Z,99044.00
2023-11-30T11:17:49.705Z,99049.00
2023-11-30T11:20:29.739Z,99051.00
2023-11-30T11:23:08.885Z,99033.00
2023-11-30T11:25:42.753Z,99036.00
2023-11-30T11:28:10.748Z,99038.00
2023-11-30T11:30:43.878Z,99032.00
2023-11-30T11:33:12.003Z,99039.00
2023-11-30T11:35:42.123Z,99041.00
2023-11-30T11:38:09.952Z,99035.00
2023-11-30T11:40:40.931Z,99030.00
2023-11-30T11:43:09.615Z,99032.00
2023-11-30T11:45:38.739Z,99037.00
2023-11-30T11:48:09.820Z,99038.00
2023-11-30T11:50:37.544Z,99035.00
2023-11-30T11:53:05.646Z,99041.00
2023-11-30T11:55:33.536Z,99033.00
2023-11-30T11:58:01.452Z,99037.00
2023-11-30T12:00:29.394Z,99033.00
2023-11-30T12:03:08.024Z,99030.00
2023-11-30T12:05:46.188Z,99025.00
2023-11-30T12:08:14.043Z,99020.00
2023-11-30T12:10:44.164Z,99024.00
2023-11-30T12:13:16.275Z,99025.00
2023-11-30T12:15:45.479Z,99026.00
2023-11-30T12:18:14.706Z,99025.00
2023-11-30T12:20:42.395Z,99024.00
2023-11-30T12:23:09.996Z,99025.00
2023-11-30T12:25:39.876Z,99019.00
2023-11-30T12:28:08.880Z,99029.00
2023-11-30T12:30:36.690Z,99022.00
2023-11-30T12:33:04.885Z,99025.00
2023-11-30T12:35:32.533Z,99033.00
2023-11-30T12:38:00.532Z,99030.00
2023-11-30T12:40:28.411Z,99022.00
2023-11-30T12:42:56.457Z,99029.00
2023-11-30T12:45:24.267Z,99030.00
2023-11-30T12:47:52.044Z,99039.00
2023-11-30T12:50:20.798Z,99035.00
2023-11-30T12:52:48.999Z,99050.00
2023-11-30T12:55:19.583Z,99049.00
2023-11-30T12:57:48.576Z,99055.00
2023-11-30T13:00:16.930Z,99053.00
2023-11-30T13:02:47.054Z,99056.00
2023-11-30T13:05:15.798Z,99055.00
2023-11-30T13:07:43.724Z,99056.00
2023-11-30T13:10:11.987Z,99048.00
2023-11-30T13:12:40.557Z,99061.00
2023-11-30T13:15:12.251Z,99042.00
2023-11-30T13:17:41.479Z,99047.00
2023-11-30T13:20:14.570Z,99039.00
2023-11-30T13:22:47.402Z,99047.00
2023-11-30T13:25:16.275Z,99044.00
2023-11-30T13:27:48.098Z,99037.00
2023-11-30T13:30:17.060Z,99041.00
2023-11-30T13:32:45.726Z,99039.00
2023-11-30T13:35:13.550Z,99038.00
2023-11-30T13:37:41.401Z,99043.00
2023-11-30T13:40:14.880Z,99032.00
2023-11-30T13:42:42.847Z,99039.00
2023-11-30T13:45:11.299Z,99040.00
2023-11-30T13:47:42.887Z,99033.00
2023-11-30T13:50:20.642Z,99035.00
2023-11-30T13:52:59.956Z,99036.00
2023-11-30T13:55:27.904Z,99036.00
2023-11-30T13:57:55.688Z,99029.00
2023-11-30T14:00:26.478Z,99032.00
2023-11-30T14:02:54.197Z,99034.00
2023-11-30T14:05:21.982Z,99030.00
2023-11-30T14:07:49.537Z,99036.00
2023-11-30T14:10:17.857Z,99035.00
2023-11-30T14:12:45.725Z,99033.00
2023-11-30T14:15:13.540Z,99030.00
2023-11-30T14:17:41.435Z,99031.00
2023-11-30T14:20:10.891Z,99034.00
2023-11-30T14:22:39.019Z,99034.00
2023-11-30T14:25:11.019Z,99028.00
2023-11-30T14:27:38.648Z,99032.00
2023-11-30T14:30:10.895Z,99026.00
2023-11-30T14:32:40.840Z,99032.00
2023-11-30T14:35:09.679Z,99047.00
2023-11-30T14:37:38.063Z,99044.00
2023-11-30T14:40:09.753Z,99043.00
2023-11-30T14:42:37.412Z,99048.00
2023-11-30T14:45:06.935Z,99061.00
2023-11-30T14:47:40.190Z,99048.00
2023-11-30T14:50:11.826Z,99044.00
2023-11-30T14:52:39.590Z,99048.00
2023-11-30T14:55:08.348Z,99033.00
2023-11-30T14:57:35.924Z,99047.00
2023-11-30T15:00:08.468Z,99049.00
2023-11-30T15:02:36.505Z,99049.00
2023-11-30T15:05:07.351Z,99038.00
2023-11-30T15:07:35.164Z,99039.00
2023-11-30T15:10:05.358Z,99035.00
2023-11-30T15:12:33.056Z,99035.00
2023-11-30T15:15:00.826Z,99029.00
2023-11-30T15:17:28.846Z,99037.00
2023-11-30T15:19:56.654Z,99044.00
2023-11-30T15:22:24.375Z,99043.00
2023-11-30T15:24:52.406Z,99036.00
2023-11-30T15:27:20.407Z,99039.00
2023-11-30T15:29:48.139Z,99050.00
2023-11-30T15:32:15.689Z,99047.00
2023-11-30T15:34:45.188Z,99056.00
2023-11-30T15:37:13.001Z,99049.00
2023-11-30T15:39:40.893Z,99053.00
2023-11-30T15:42:09.247Z,99042.00
2023-11-30T15:44:37.206Z,99050.00
2023-11-30T15:47:05.059Z,99050.00
2023-11-30T15:49:33.404Z,99051.00
2023-11-30T15:52:01.017Z,99056.00
2023-11-30T15:54:28.707Z,99053.00
2023-11-30T15:56:56.532Z,99047.00
2023-11-30T15:59:24.319Z,99053.00
2023-11-30T16:01:52.085Z,99047.00
2023-11-30T16:04:20.406Z,99054.00
2023-11-30T16:06:48.702Z,99053.00
2023-11-30T16:09:16.665Z,99053.00
2023-11-30T16:11:44.472Z,99054.00
2023-11-30T16:14:12.563Z,99059.00
2023-11-30T16:16:45.627Z,99061.00
2023-11-30T16:19:13.623Z,99060.00
2023-11-30T16:21:41.386Z,99058.00
2023-11-30T16:24:09.794Z,99061.00
2023-11-30T16:26:38.089Z,99060.00
2023-11-30T16:29:07.015Z,99059.00
2023-11-30T16:31:34.889Z,99065.00
2023-11-30T16:34:02.743Z,99070.00
2023-11-30T16:36:31.051Z,99064.00
2023-11-30T16:38:59.197Z,99056.00
2023-11-30T16:41:27.229Z,99056.00
2023-11-30T16:43:55.246Z,99062.00
2023-11-30T16:46:23.308Z,99053.00
2023-11-30T16:48:58.193Z,99059.00
2023-11-30T16:51:26.888Z,99051.00
2023-11-30T16:53:55.014Z,99051.00
2023-11-30T16:56:29.174Z,99039.00
2023-11-30T16:58:57.332Z,99038.00
2023-11-30T17:01:25.005Z,99038.00
2023-11-30T17:03:52.830Z,99042.00
2023-11-30T17:06:20.768Z,99039.00
2023-11-30T17:08:48.623Z,99039.00
2023-11-30T17:11:16.694Z,99035.00
2023-11-30T17:13:44.375Z,99036.00
2023-11-30T17:16:12.373Z,99029.00
2023-11-30T17:18:41.514Z,99021.00
2023-11-30T17:21:09.327Z,99015.00
2023-11-30T17:23:39.285Z,99022.00
2023-11-30T17:26:07.407Z,99019.00
2023-11-30T17:28:35.146Z,99019.00
2023-11-30T17:31:03.301Z,99017.00
2023-11-30T17:33:32.881Z,99012.00
2023-11-30T17:36:00.769Z,99018.00
2023-11-30T17:38:29.510Z,99013.00
2023-11-30T17:40:57.251Z,99016.00
2023-11-30T17:43:25.116Z,99021.00
2023-11-30T17:45:53.311Z,99015.00
2023-11-30T17:48:21.380Z,99021.00
2023-11-30T17:50:49.213Z,99027.00
2023-11-30T17:53:18.435Z,99024.00
2023-11-30T17:55:46.491Z,99021.00
2023-11-30T17:58:14.452Z,99027.00
2023-11-30T18:00:42.862Z,99031.00
2023-11-30T18:03:10.749Z,99029.00
2023-11-30T18:05:40.261Z,99037.00
2023-11-30T18:08:08.378Z,99033.00
2023-11-30T18:10:36.438Z,99035.00
2023-11-30T18:13:04.243Z,99042.00
2023-11-30T18:15:32.119Z,99044.00
2023-11-30T18:18:00.064Z,99047.00
2023-11-30T18:20:27.819Z,99043.00
2023-11-30T18:22:55.774Z,99038.00
2023-11-30T18:25:23.413Z,99047.00
2023-11-30T18:27:53.596Z,99061.00
2023-11-30T18:30:21.332Z,99055.00
2023-11-30T18:32:50.765Z,99052.00
2023-11-30T18:35:18.522Z,99064.00
2023-11-30T18:37:46.348Z,99051.00
2023-11-30T18:40:17.096Z,99051.00
2023-11-30T18:42:48.061Z,99042.00
2023-11-30T18:45:15.879Z,99050.00
2023-11-30T18:47:43.652Z,99051.00
2023-11-30T18:50:14.430Z,99056.00
2023-11-30T18:52:42.138Z,99061.00
2023-11-30T18:55:10.121Z,99059.00
2023-11-30T18:57:38.085Z,99055.00
2023-11-30T19:00:07.071Z,99055.00
2023-11-30T19:02:34.985Z,99065.00
2023-11-30T19:05:06.525Z,99068.00
2023-11-30T19:07:36.995Z,99060.00
2023-11-30T19:10:05.807Z,99066.00
2023-11-30T19:12:33.545Z,99059.00
2023-11-30T19:15:02.075Z,99061.00
2023-11-30T19:17:30.136Z,99064.00
2023-11-30T19:19:57.983Z,99059.00
2023-11-30T19:22:30.739Z,99056.00
2023-11-30T19:24:59.146Z,99066.00
2023-11-30T19:27:27.066Z,99060.00
2023-11-30T19:29:54.789Z,99064.00
2023-11-30T19:32:22.564Z,99065.00
2023-11-30T19:34:50.648Z,99067.00
2023-11-30T19:37:19.398Z,99079.00
2023-11-30T19:39:47.315Z,99080.00
2023-11-30T19:42:15.041Z,99082.00
2023-11-30T19:44:42.748Z,99082.00
2023-11-30T19:47:10.666Z,99076.00
2023-11-30T19:49:38.321Z,99073.00
2023-11-30T19:52:06.389Z,99078.00
2023-11-30T19:54:34.203Z,99086.00
2023-11-30T19:57:01.889Z,99074.00
2023-11-30T19:59:29.738Z,99081.00
2023-11-30T20:01:58.886Z,99069.00
2023-11-30T20:04:26.868Z,99074.00
2023-11-30T20:06:54.699Z,99072.00
2023-11-30T20:09:24.318Z,99074.00
2023-11-30T20:11:52.034Z,99079.00
2023-11-30T20:14:19.842Z,99083.00
2023-11-30T20:16:47.834Z,99086.00
2023-11-30T20:19:15.817Z,99094.00
2023-11-30T20:21:48.722Z,99103.00
2023-11-30T20:24:16.688Z,99098.00
2023-11-30T20:26:46.971Z,99097.00
2023-11-30T20:29:15.615Z,99106.00
2023-11-30T20:31:43.552Z,99104.00
2023-11-30T20:34:11.560Z,99097.00
2023-11-30T20:36:39.414Z,99094.00
2023-11-30T20:39:07.490Z,99107.00
2023-11-30T20:41:36.654Z,99109.00
2023-11-30T20:44:05.692Z,99104.00
2023-11-30T20:46:33.838Z,99105.00
2023-11-30T20:49:01.461Z,99107.00
2023-11-30T20:51:29.300Z,99114.00
2023-11-30T20:53:57.440Z,99108.00
2023-11-30T20:56:26.211Z,99113.00
2023-11-30T20:58:53.993Z,99118.00
2023-11-30T21:01:21.844Z,99122.00
2023-11-30T21:03:50.003Z,99122.00
2023-11-30T21:06:18.194Z,99126.00
2023-11-30T21:08:46.064Z,99129.00
2023-11-30T21:11:15.038Z,99124.00
2023-11-30T21:13:43.001Z,99129.00
2023-11-30T21:16:11.260Z,99124.00
2023-11-30T21:18:40.683Z,99125.00
2023-11-30T21:21:08.936Z,99133.00
2023-11-30T21:23:36.665Z,99128.00
2023-11-30T21:26:04.546Z,99131.00
2023-11-30T21:28:32.471Z,99133.00
2023-11-30T21:31:00.513Z,99134.00
2023-11-30T21:33:28.327Z,99136.00
2023-11-30T21:35:56.991Z,99133.00
2023-11-30T21:38:25.086Z,99142.00
2023-11-30T21:40:53.011Z,99144.00
2023-11-30T21:43:20.981Z,99144.00
2023-11-30T21:45:48.772Z,99136.00
2023-11-30T21:48:17.103Z,99138.00
2023-11-30T21:50:45.006Z,99132.00
2023-11-30T21:53:13.115Z,99139.00
2023-11-30T21:55:41.359Z,99137.00
2023-11-30T21:58:09.227Z,99131.00
2023-11-30T22:00:37.179Z,99128.00
2023-11-30T22:03:05.112Z,99131.00
2023-11-30T22:05:37.228Z,99140.00
2023-11-30T22:08:05.556Z,99132.00
2023-11-30T22:10:33.201Z,99141.00
2023-11-30T22:13:01.217Z,99141.00
2023-11-30T22:15:29.226Z,99141.00
2023-11-30T22:17:57.877Z,99143.00
2023-11-30T22:20:25.615Z,99147.00
2023-11-30T22:22:53.475Z,99146.00
2023-11-30T22:25:21.487Z,99147.00
2023-11-30T22:27:49.279Z,99146.00
2023-11-30T22:30:17.046Z,99153.00
2023-11-30T22:32:44.849Z,99159.00
2023-11-30T22:35:12.722Z,99149.00
2023-11-30T22:37:40.521Z,99150.00
2023-11-30T22:40:08.864Z,99155.00
2023-11-30T22:42:36.534Z,99158.00
2023-11-30T22:45:05.676Z,99158.00
2023-11-30T22:47:34.702Z,99157.00
2023-11-30T22:50:02.790Z,99155.00
2023-11-30T22:52:30.626Z,99155.00
2023-11-30T22:54:58.715Z,99159.00
2023-11-30T22:57:26.476Z,99161.00
2023-11-30T22:59:54.331Z,99155.00
2023-11-30T23:02:23.953Z,99157.00
2023-11-30T23:04:52.154Z,99158.00
2023-11-30T23:07:20.838Z,99157.00
2023-11-30T23:09:48.927Z,99145.00
2023-11-30T23:12:18.011Z,99147.00
2023-11-30T23:14:45.599Z,99158.00
2023-11-30T23:17:13.513Z,99160.00
2023-11-30T23:19:41.576Z,99156.00
2023-11-30T23:22:09.882Z,99162.00
2023-11-30T23:24:39.033Z,99152.00
2023-11-30T23:27:06.923Z,99147.00
2023-11-30T23:29:37.982Z,99167.00
2023-11-30T23:32:05.942Z,99151.00
2023-11-30T23:34:33.658Z,99156.00
2023-11-30T23:37:01.624Z,99158.00
2023-11-30T23:39:29.460Z,99161.00
2023-11-30T23:41:57.453Z,99161.00
2023-11-30T23:44:26.202Z,99158.00
2023-11-30T23:46:53.943Z,99174.00
2023-11-30T23:49:21.770Z,99179.00
2023-11-30T23:51:52.529Z,99168.00
2023-11-30T23:54:20.989Z,99168.00
2023-11-30T23:56:48.945Z,99165.00
2023-11-30T23:59:16.888Z,99166.00
